createdAt,value
2023-09-04T00:01:00.284Z,47.71
2023-09-04T00:03:28.087Z,47.87
2023-09-04T00:05:55.633Z,47.77
2023-09-04T00:08:23.472Z,47.77
2023-09-04T00:10:50.730Z,47.84
2023-09-04T00:13:18.118Z,47.74
2023-09-04T00:15:46.185Z,47.69
2023-09-04T00:18:14.460Z,47.74
2023-09-04T00:20:41.660Z,47.85
2023-09-04T00:23:08.659Z,47.83
2023-09-04T00:25:36.055Z,47.74
2023-09-04T00:28:03.466Z,47.92
2023-09-04T00:30:30.564Z,47.71
2023-09-04T00:32:57.741Z,47.74
2023-09-04T00:35:25.085Z,47.80
2023-09-04T00:37:52.681Z,47.60
2023-09-04T00:40:19.671Z,47.70
2023-09-04T00:42:46.719Z,47.79
2023-09-04T00:45:13.883Z,47.81
2023-09-04T00:47:46.066Z,47.97
2023-09-04T00:50:18.855Z,47.97
2023-09-04T00:52:46.283Z,48.02
2023-09-04T00:55:13.766Z,48.21
2023-09-04T00:57:43.651Z,48.13
2023-09-04T01:00:14.839Z,48.25
2023-09-04T01:02:42.992Z,48.12
2023-09-04T01:05:10.615Z,48.02
2023-09-04T01:07:42.442Z,48.14
2023-09-04T01:10:14.866Z,48.02
2023-09-04T01:12:47.957Z,48.18
2023-09-04T01:15:15.724Z,48.03
2023-09-04T01:17:45.103Z,48.30
2023-09-04T01:20:32.401Z,48.15
2023-09-04T01:23:00.709Z,48.26
2023-09-04T01:25:39.607Z,48.10
2023-09-04T01:28:19.545Z,48.35
2023-09-04T01:31:00.834Z,48.28
2023-09-04T01:33:32.876Z,48.24
2023-09-04T01:36:03.680Z,48.29
2023-09-04T01:38:31.744Z,48.18
2023-09-04T01:40:58.899Z,48.19
2023-09-04T01:43:25.946Z,48.21
2023-09-04T01:45:53.204Z,48.22
2023-09-04T01:48:20.250Z,48.12
2023-09-04T01:50:47.401Z,48.17
2023-09-04T01:53:14.508Z,48.20
2023-09-04T01:55:41.595Z,48.27
2023-09-04T01:58:08.949Z,48.35
2023-09-04T02:00:36.204Z,48.34
2023-09-04T02:03:03.409Z,48.49
2023-09-04T02:05:30.497Z,48.45
2023-09-04T02:07:57.960Z,48.41
2023-09-04T02:10:28.279Z,48.49
2023-09-04T02:12:57.108Z,48.47
2023-09-04T02:15:24.427Z,48.33
2023-09-04T02:17:53.041Z,48.66
2023-09-04T02:20:20.982Z,48.65
2023-09-04T02:22:48.538Z,48.56
2023-09-04T02:25:15.519Z,48.61
2023-09-04T02:27:42.448Z,48.57
2023-09-04T02:30:10.119Z,48.60
2023-09-04T02:32:37.543Z,48.49
2023-09-04T02:35:04.977Z,48.54
2023-09-04T02:37:32.360Z,48.58
2023-09-04T02:39:59.387Z,48.44
2023-09-04T02:42:30.035Z,48.32
2023-09-04T02:44:57.090Z,48.32
2023-09-04T02:47:24.137Z,48.38
2023-09-04T02:49:52.105Z,48.30
2023-09-04T02:52:19.166Z,48.54
2023-09-04T02:54:46.354Z,48.50
2023-09-04T02:57:13.753Z,48.49
2023-09-04T02:59:40.916Z,48.39
2023-09-04T03:02:08.028Z,48.54
2023-09-04T03:04:35.213Z,48.62
2023-09-04T03:07:02.527Z,48.55
2023-09-04T03:09:30.330Z,48.61
2023-09-04T03:11:57.575Z,48.49
2023-09-04T03:14:24.802Z,48.44
2023-09-04T03:16:51.882Z,48.35
2023-09-04T03:19:19.032Z,48.50
2023-09-04T03:21:46.384Z,48.48
2023-09-04T03:24:13.435Z,48.44
2023-09-04T03:26:40.496Z,48.35
2023-09-04T03:29:08.025Z,48.57
2023-09-04T03:31:37.561Z,48.64
2023-09-04T03:34:06.691Z,48.67
2023-09-04T03:36:34.220Z,48.61
2023-09-04T03:39:01.241Z,48.55
2023-09-04T03:41:29.074Z,48.48
2023-09-04T03:43:56.870Z,48.63
2023-09-04T03:46:24.147Z,48.58
2023-09-04T03:48:51.327Z,48.61
2023-09-04T03:51:18.287Z,48.64
2023-09-04T03:53:45.508Z,48.55
2023-09-04T03:56:13.816Z,48.46
2023-09-04T03:58:41.018Z,48.57
2023-09-04T04:01:08.118Z,48.54
2023-09-04T04:03:35.415Z,48.46
2023-09-04T04:06:14.157Z,48.56
2023-09-04T04:08:41.653Z,48.55
2023-09-04T04:11:08.898Z,48.46
2023-09-04T04:13:36.171Z,48.64
2023-09-04T04:16:04.310Z,48.67
2023-09-04T04:18:32.342Z,48.38
2023-09-04T04:20:59.390Z,48.50
2023-09-04T04:23:26.408Z,48.47
2023-09-04T04:25:53.525Z,48.36
2023-09-04T04:28:22.346Z,48.33
2023-09-04T04:30:50.100Z,48.44
2023-09-04T04:33:17.486Z,48.38
2023-09-04T04:35:44.814Z,48.24
2023-09-04T04:38:12.191Z,48.31
2023-09-04T04:40:40.061Z,48.20
2023-09-04T04:43:07.428Z,48.23
2023-09-04T04:45:34.686Z,48.35
2023-09-04T04:48:05.065Z,48.44
2023-09-04T04:50:32.522Z,48.43
2023-09-04T04:52:59.554Z,48.22
2023-09-04T04:55:26.823Z,48.29
2023-09-04T04:57:54.597Z,48.39
2023-09-04T05:00:21.720Z,48.40
2023-09-04T05:02:49.794Z,48.34
2023-09-04T05:05:17.635Z,48.17
2023-09-04T05:07:44.721Z,48.42
2023-09-04T05:10:14.394Z,48.22
2023-09-04T05:12:42.619Z,48.33
2023-09-04T05:15:10.320Z,48.29
2023-09-04T05:17:37.800Z,48.32
2023-09-04T05:20:06.679Z,48.54
2023-09-04T05:22:34.437Z,48.58
2023-09-04T05:25:02.190Z,48.73
2023-09-04T05:27:30.386Z,48.75
2023-09-04T05:29:57.322Z,48.46
2023-09-04T05:32:24.497Z,48.56
2023-09-04T05:34:55.234Z,48.73
2023-09-04T05:37:22.766Z,48.65
2023-09-04T05:39:50.156Z,48.83
2023-09-04T05:42:18.105Z,48.68
2023-09-04T05:44:45.240Z,48.73
2023-09-04T05:47:12.338Z,48.83
2023-09-04T05:49:39.511Z,48.88
2023-09-04T05:52:06.778Z,48.96
2023-09-04T05:54:33.843Z,49.10
2023-09-04T05:57:00.976Z,48.94
2023-09-04T05:59:27.987Z,49.04
2023-09-04T06:01:55.271Z,48.97
2023-09-04T06:04:24.941Z,48.89
2023-09-04T06:06:52.768Z,49.04
2023-09-04T06:09:20.344Z,49.05
2023-09-04T06:11:47.413Z,48.87
2023-09-04T06:14:14.510Z,49.03
2023-09-04T06:16:41.627Z,48.91
2023-09-04T06:19:08.562Z,48.86
2023-09-04T06:21:35.457Z,48.93
2023-09-04T06:24:02.920Z,48.86
2023-09-04T06:26:29.841Z,48.73
2023-09-04T06:28:56.811Z,48.96
2023-09-04T06:31:23.737Z,48.83
2023-09-04T06:33:50.904Z,48.77
2023-09-04T06:36:17.985Z,48.84
2023-09-04T06:38:45.025Z,48.73
2023-09-04T06:41:12.089Z,49.05
2023-09-04T06:43:39.384Z,49.16
2023-09-04T06:46:06.628Z,48.93
2023-09-04T06:48:33.744Z,48.86
2023-09-04T06:51:01.821Z,49.04
2023-09-04T06:53:28.841Z,49.13
2023-09-04T06:55:55.872Z,49.26
2023-09-04T06:58:23.969Z,49.24
2023-09-04T07:00:54.492Z,49.05
2023-09-04T07:03:22.940Z,49.23
2023-09-04T07:05:50.986Z,49.35
2023-09-04T07:08:17.925Z,49.12
2023-09-04T07:10:45.180Z,49.20
2023-09-04T07:13:12.163Z,49.13
2023-09-04T07:15:39.124Z,49.09
2023-09-04T07:18:07.172Z,49.24
2023-09-04T07:20:34.328Z,49.11
2023-09-04T07:23:29.732Z,49.05
2023-09-04T07:25:48.802Z,49.09
2023-09-04T07:28:16.032Z,48.89
2023-09-04T07:30:43.062Z,49.01
2023-09-04T07:33:10.676Z,48.88
2023-09-04T07:35:37.891Z,48.94
2023-09-04T07:38:05.042Z,49.01
2023-09-04T07:40:32.047Z,48.85
2023-09-04T07:42:59.366Z,49.20
2023-09-04T07:45:26.759Z,49.08
2023-09-04T07:47:53.870Z,49.08
2023-09-04T07:50:20.999Z,49.03
2023-09-04T07:52:48.290Z,49.05
2023-09-04T07:55:15.510Z,48.87
2023-09-04T07:57:44.609Z,48.93
2023-09-04T08:00:13.358Z,48.86
2023-09-04T08:02:44.596Z,48.60
2023-09-04T08:05:11.775Z,48.57
2023-09-04T08:07:38.730Z,48.64
2023-09-04T08:10:06.145Z,48.63
2023-09-04T08:12:33.075Z,48.67
2023-09-04T08:15:00.213Z,48.81
2023-09-04T08:17:27.601Z,48.77
2023-09-04T08:19:54.744Z,48.61
2023-09-04T08:22:21.757Z,48.62
2023-09-04T08:24:50.097Z,48.63
2023-09-04T08:27:17.051Z,48.69
2023-09-04T08:29:45.177Z,48.77
2023-09-04T08:32:12.235Z,48.77
2023-09-04T08:34:39.818Z,48.42
2023-09-04T08:37:07.301Z,48.54
2023-09-04T08:39:35.508Z,48.60
2023-09-04T08:42:05.485Z,48.58
2023-09-04T08:44:33.396Z,48.61
2023-09-04T08:47:01.102Z,48.66
2023-09-04T08:49:28.864Z,48.63
2023-09-04T08:51:56.888Z,48.55
2023-09-04T08:54:26.642Z,48.61
2023-09-04T08:56:53.605Z,48.47
2023-09-04T08:59:20.604Z,48.63
2023-09-04T09:01:47.946Z,48.64
2023-09-04T09:04:16.519Z,48.67
2023-09-04T09:06:45.580Z,48.53
2023-09-04T09:09:13.449Z,48.61
2023-09-04T09:11:41.187Z,48.82
2023-09-04T09:14:08.191Z,48.70
2023-09-04T09:16:35.199Z,48.80
2023-09-04T09:19:03.093Z,48.70
2023-09-04T09:21:32.257Z,48.72
2023-09-04T09:24:10.164Z,48.77
2023-09-04T09:26:39.351Z,48.83
2023-09-04T09:29:09.764Z,48.76
2023-09-04T09:31:38.241Z,48.79
2023-09-04T09:34:05.903Z,48.71
2023-09-04T09:36:33.062Z,48.79
2023-09-04T09:39:00.669Z,48.85
2023-09-04T09:41:30.228Z,48.97
2023-09-04T09:43:57.759Z,48.76
2023-09-04T09:46:25.467Z,48.91
2023-09-04T09:48:52.569Z,48.75
2023-09-04T09:51:20.591Z,49.05
2023-09-04T09:53:52.843Z,48.86
2023-09-04T09:56:20.765Z,48.86
2023-09-04T09:58:49.953Z,49.09
2023-09-04T10:01:18.955Z,49.21
2023-09-04T10:03:48.778Z,49.14
2023-09-04T10:06:21.190Z,49.46
2023-09-04T10:08:50.984Z,49.48
2023-09-04T10:11:18.693Z,49.61
2023-09-04T10:13:45.710Z,49.75
2023-09-04T10:16:20.448Z,49.86
2023-09-04T10:18:53.614Z,49.81
2023-09-04T10:21:23.562Z,49.72
2023-09-04T10:23:55.689Z,49.76
2023-09-04T10:26:37.172Z,49.67
2023-09-04T10:29:08.138Z,49.80
2023-09-04T10:31:37.317Z,49.68
2023-09-04T10:34:04.971Z,49.82
2023-09-04T10:36:32.522Z,49.82
2023-09-04T10:39:02.018Z,49.86
2023-09-04T10:41:30.857Z,49.86
2023-09-04T10:43:57.976Z,49.91
2023-09-04T10:46:25.076Z,50.03
2023-09-04T10:48:53.903Z,49.90
2023-09-04T10:51:29.937Z,50.09
2023-09-04T10:53:58.736Z,50.07
2023-09-04T10:56:26.715Z,49.93
2023-09-04T10:59:05.973Z,49.91
2023-09-04T11:01:39.632Z,49.95
2023-09-04T11:04:08.915Z,49.80
2023-09-04T11:06:38.680Z,49.97
2023-09-04T11:09:06.695Z,49.80
2023-09-04T11:11:35.037Z,49.91
2023-09-04T11:14:05.156Z,49.93
2023-09-04T11:16:36.388Z,49.82
2023-09-04T11:19:06.545Z,49.82
2023-09-04T11:21:38.346Z,49.90
2023-09-04T11:24:05.966Z,49.78
2023-09-04T11:26:33.806Z,49.84
2023-09-04T11:29:02.975Z,49.97
2023-09-04T11:31:32.348Z,50.04
2023-09-04T11:34:00.039Z,49.82
2023-09-04T11:36:27.532Z,49.91
2023-09-04T11:39:14.136Z,50.15
2023-09-04T11:41:41.253Z,50.02
2023-09-04T11:44:08.622Z,50.39
2023-09-04T11:46:36.512Z,50.38
2023-09-04T11:49:07.285Z,50.61
2023-09-04T11:51:36.476Z,50.23
2023-09-04T11:54:10.042Z,50.56
2023-09-04T11:56:38.119Z,50.74
2023-09-04T11:59:06.851Z,50.40
2023-09-04T12:01:34.063Z,50.76
2023-09-04T12:04:03.567Z,50.54
2023-09-04T12:06:30.844Z,50.85
2023-09-04T12:09:00.087Z,50.88
2023-09-04T12:11:28.506Z,50.57
2023-09-04T12:13:56.382Z,50.64
2023-09-04T12:16:23.465Z,50.66
2023-09-04T12:18:50.733Z,50.74
2023-09-04T12:21:17.850Z,50.43
2023-09-04T12:23:47.782Z,50.36
2023-09-04T12:26:17.885Z,50.21
2023-09-04T12:28:45.482Z,50.21
2023-09-04T12:31:13.243Z,49.91
2023-09-04T12:33:42.186Z,49.86
2023-09-04T12:36:10.594Z,49.69
2023-09-04T12:38:38.734Z,49.64
2023-09-04T12:41:06.116Z,49.50
2023-09-04T12:43:33.672Z,49.21
2023-09-04T12:46:01.020Z,48.92
2023-09-04T12:48:28.069Z,48.84
2023-09-04T12:50:55.077Z,48.64
2023-09-04T12:53:22.313Z,48.62
2023-09-04T12:55:49.374Z,48.44
2023-09-04T12:58:17.120Z,48.14
2023-09-04T13:00:44.236Z,48.40
2023-09-04T13:03:12.449Z,48.34
2023-09-04T13:05:39.582Z,48.48
2023-09-04T13:08:07.143Z,48.49
2023-09-04T13:10:36.328Z,48.39
2023-09-04T13:13:03.565Z,48.56
2023-09-04T13:15:30.728Z,48.47
2023-09-04T13:17:58.777Z,48.50
2023-09-04T13:20:26.107Z,48.38
2023-09-04T13:22:53.415Z,48.27
2023-09-04T13:25:20.615Z,48.66
2023-09-04T13:27:47.642Z,48.54
2023-09-04T13:30:15.007Z,48.67
2023-09-04T13:32:42.160Z,48.55
2023-09-04T13:35:09.683Z,48.53
2023-09-04T13:37:37.930Z,48.69
2023-09-04T13:40:05.732Z,48.65
2023-09-04T13:42:33.513Z,48.78
2023-09-04T13:45:01.354Z,48.39
2023-09-04T13:47:28.752Z,48.60
2023-09-04T13:49:56.651Z,48.72
2023-09-04T13:52:25.300Z,48.64
2023-09-04T13:54:56.686Z,48.70
2023-09-04T13:57:27.078Z,48.68
2023-09-04T13:59:54.200Z,48.62
2023-09-04T14:02:21.353Z,48.72
2023-09-04T14:04:48.417Z,48.68
2023-09-04T14:07:16.368Z,48.68
2023-09-04T14:09:43.347Z,48.77
2023-09-04T14:12:11.692Z,48.80
2023-09-04T14:14:38.766Z,48.60
2023-09-04T14:17:06.652Z,48.81
2023-09-04T14:19:34.239Z,48.82
2023-09-04T14:22:01.420Z,48.65
2023-09-04T14:24:28.570Z,48.69
2023-09-04T14:26:55.759Z,48.75
2023-09-04T14:29:23.142Z,48.84
2023-09-04T14:31:50.468Z,48.78
2023-09-04T14:34:18.519Z,48.77
2023-09-04T14:37:02.913Z,48.66
2023-09-04T14:39:33.948Z,48.73
2023-09-04T14:42:01.468Z,48.73
2023-09-04T14:44:28.446Z,48.62
2023-09-04T14:46:55.564Z,48.59
2023-09-04T14:49:22.576Z,48.69
2023-09-04T14:51:49.505Z,48.66
2023-09-04T14:54:18.193Z,48.76
2023-09-04T14:56:45.419Z,48.79
2023-09-04T14:59:12.438Z,48.68
2023-09-04T15:01:39.412Z,48.75
2023-09-04T15:04:06.872Z,48.72
2023-09-04T15:06:35.197Z,48.77
2023-09-04T15:09:02.229Z,48.69
2023-09-04T15:11:29.258Z,48.86
2023-09-04T15:13:56.298Z,48.65
2023-09-04T15:16:23.256Z,48.51
2023-09-04T15:18:50.300Z,48.63
2023-09-04T15:21:17.775Z,48.66
2023-09-04T15:23:44.721Z,48.63
2023-09-04T15:26:11.682Z,48.64
2023-09-04T15:28:38.581Z,48.62
2023-09-04T15:31:05.675Z,48.75
2023-09-04T15:33:32.811Z,48.67
2023-09-04T15:36:03.197Z,48.64
2023-09-04T15:38:38.570Z,48.51
2023-09-04T15:41:05.929Z,48.70
2023-09-04T15:43:33.048Z,48.61
2023-09-04T15:46:02.025Z,48.60
2023-09-04T15:48:29.063Z,48.69
2023-09-04T15:50:56.062Z,48.71
2023-09-04T15:53:24.545Z,48.65
2023-09-04T15:55:56.493Z,48.43
2023-09-04T15:58:25.247Z,48.55
2023-09-04T16:00:53.582Z,48.14
2023-09-04T16:03:23.019Z,48.16
2023-09-04T16:05:50.280Z,48.06
2023-09-04T16:08:18.182Z,48.32
2023-09-04T16:10:48.380Z,48.28
2023-09-04T16:13:16.910Z,48.26
2023-09-04T16:15:44.202Z,48.26
2023-09-04T16:18:11.291Z,48.20
2023-09-04T16:20:46.250Z,48.17
2023-09-04T16:23:13.856Z,47.94
2023-09-04T16:25:40.999Z,48.08
2023-09-04T16:28:08.460Z,48.04
2023-09-04T16:30:36.029Z,47.98
2023-09-04T16:33:03.724Z,47.67
2023-09-04T16:35:30.851Z,47.51
2023-09-04T16:37:58.256Z,47.53
2023-09-04T16:40:25.230Z,47.24
2023-09-04T16:42:52.183Z,47.21
2023-09-04T16:45:19.652Z,47.15
2023-09-04T16:47:47.156Z,47.38
2023-09-04T16:50:14.625Z,47.23
2023-09-04T16:52:41.763Z,47.30
2023-09-04T16:55:09.291Z,47.27
2023-09-04T16:57:36.564Z,47.35
2023-09-04T17:00:09.156Z,47.30
2023-09-04T17:02:36.210Z,47.37
2023-09-04T17:05:05.817Z,47.29
2023-09-04T17:07:33.503Z,47.26
2023-09-04T17:10:00.470Z,47.33
2023-09-04T17:12:27.481Z,47.31
2023-09-04T17:14:54.425Z,47.38
2023-09-04T17:17:21.520Z,47.28
2023-09-04T17:19:48.451Z,47.19
2023-09-04T17:22:15.569Z,47.28
2023-09-04T17:24:42.632Z,47.21
2023-09-04T17:27:09.554Z,47.44
2023-09-04T17:29:36.536Z,47.45
2023-09-04T17:32:04.975Z,47.39
2023-09-04T17:34:31.983Z,47.42
2023-09-04T17:36:58.981Z,47.49
2023-09-04T17:39:29.950Z,47.41
2023-09-04T17:41:57.327Z,47.52
2023-09-04T17:44:24.554Z,47.55
2023-09-04T17:46:52.610Z,47.45
2023-09-04T17:49:19.890Z,47.58
2023-09-04T17:51:46.817Z,47.51
2023-09-04T17:54:13.852Z,47.63
2023-09-04T17:56:40.816Z,47.77
2023-09-04T17:59:08.674Z,47.83
2023-09-04T18:01:35.978Z,47.79
2023-09-04T18:04:03.182Z,48.06
2023-09-04T18:06:34.733Z,47.91
2023-09-04T18:09:02.411Z,48.05
2023-09-04T18:11:29.516Z,48.19
2023-09-04T18:13:57.061Z,48.09
2023-09-04T18:16:24.066Z,48.37
2023-09-04T18:18:51.223Z,48.25
2023-09-04T18:21:19.536Z,48.53
2023-09-04T18:23:46.627Z,48.42
2023-09-04T18:26:15.033Z,48.55
2023-09-04T18:28:46.452Z,48.59
2023-09-04T18:31:15.008Z,48.87
2023-09-04T18:33:42.621Z,48.72
2023-09-04T18:36:12.581Z,48.70
2023-09-04T18:38:46.153Z,48.90
2023-09-04T18:41:14.829Z,49.14
2023-09-04T18:43:42.671Z,49.15
2023-09-04T18:46:11.078Z,49.19
2023-09-04T18:48:38.720Z,49.20
2023-09-04T18:51:05.876Z,49.22
2023-09-04T18:53:33.197Z,49.29
2023-09-04T18:56:00.124Z,49.20
2023-09-04T18:58:28.383Z,49.10
2023-09-04T19:01:00.286Z,49.32
2023-09-04T19:03:28.264Z,49.28
2023-09-04T19:05:55.680Z,49.08
2023-09-04T19:08:25.240Z,49.11
2023-09-04T19:10:54.142Z,49.03
2023-09-04T19:13:21.797Z,49.16
2023-09-04T19:15:48.972Z,49.28
2023-09-04T19:18:16.188Z,49.26
2023-09-04T19:20:43.176Z,49.08
2023-09-04T19:23:10.336Z,49.29
2023-09-04T19:25:37.291Z,49.29
2023-09-04T19:28:05.725Z,49.29
2023-09-04T19:30:32.957Z,49.40
2023-09-04T19:33:00.073Z,49.47
2023-09-04T19:35:27.239Z,49.31
2023-09-04T19:37:54.191Z,49.40
2023-09-04T19:40:21.329Z,49.34
2023-09-04T19:42:48.561Z,49.48
2023-09-04T19:45:16.341Z,49.48
2023-09-04T19:47:44.482Z,49.58
2023-09-04T19:50:12.197Z,49.49
2023-09-04T19:52:42.399Z,49.70
2023-09-04T19:55:09.525Z,49.73
2023-09-04T19:57:37.856Z,49.80
2023-09-04T20:00:08.227Z,49.70
2023-09-04T20:02:44.241Z,49.54
2023-09-04T20:05:11.468Z,49.24
2023-09-04T20:07:38.882Z,49.25
2023-09-04T20:10:06.626Z,49.21
2023-09-04T20:12:33.818Z,49.10
2023-09-04T20:15:00.776Z,49.14
2023-09-04T20:17:27.881Z,49.09
2023-09-04T20:19:54.937Z,49.05
2023-09-04T20:22:23.006Z,48.93
2023-09-04T20:24:50.518Z,48.74
2023-09-04T20:27:17.600Z,48.58
2023-09-04T20:29:44.689Z,48.43
2023-09-04T20:32:14.998Z,48.54
2023-09-04T20:34:42.877Z,48.34
2023-09-04T20:37:10.063Z,48.20
2023-09-04T20:39:37.419Z,48.23
2023-09-04T20:42:08.344Z,48.06
2023-09-04T20:44:35.779Z,48.22
2023-09-04T20:47:06.753Z,48.13
2023-09-04T20:49:33.877Z,48.00
2023-09-04T20:52:00.883Z,47.77
2023-09-04T20:54:28.023Z,47.81
2023-09-04T20:56:55.125Z,47.64
2023-09-04T20:59:22.194Z,47.86
2023-09-04T21:01:49.448Z,47.53
2023-09-04T21:04:16.428Z,47.44
2023-09-04T21:06:43.448Z,47.43
2023-09-04T21:09:10.425Z,47.22
2023-09-04T21:11:37.464Z,47.11
2023-09-04T21:14:23.746Z,47.14
2023-09-04T21:17:09.660Z,47.03
2023-09-04T21:19:55.471Z,47.00
2023-09-04T21:22:41.185Z,46.96
2023-09-04T21:25:26.993Z,46.90
2023-09-04T21:28:12.864Z,46.88
2023-09-04T21:30:58.580Z,46.91
2023-09-04T21:33:44.734Z,46.90
2023-09-04T21:36:30.544Z,46.95
2023-09-04T21:39:16.188Z,46.78
2023-09-04T21:42:02.147Z,46.55
2023-09-04T21:44:47.737Z,46.63
2023-09-04T21:47:33.200Z,46.59
2023-09-04T21:50:19.150Z,46.69
2023-09-04T21:53:04.890Z,46.68
2023-09-04T21:55:50.631Z,46.74
2023-09-04T21:58:36.165Z,46.58
2023-09-04T22:01:22.056Z,46.66
2023-09-04T22:04:07.872Z,46.46
2023-09-04T22:06:53.394Z,46.51
2023-09-04T22:09:39.309Z,46.59
2023-09-04T22:12:24.959Z,46.61
2023-09-04T22:15:10.656Z,46.66
2023-09-04T22:17:56.297Z,46.51
2023-09-04T22:20:42.014Z,46.70
2023-09-04T22:23:28.031Z,46.73
2023-09-04T22:26:14.267Z,46.75
2023-09-04T22:29:00.000Z,46.91
2023-09-04T22:31:45.724Z,46.93
2023-09-04T22:34:31.327Z,46.81
2023-09-04T22:37:16.959Z,46.90
2023-09-04T22:40:02.480Z,47.04
2023-09-04T22:42:47.949Z,47.06
2023-09-04T22:45:33.528Z,46.88
2023-09-04T22:48:19.232Z,46.98
2023-09-04T22:51:07.045Z,47.14
2023-09-04T22:53:52.978Z,47.09
2023-09-04T22:56:38.640Z,47.19
2023-09-04T22:59:24.430Z,47.21
2023-09-04T23:02:09.602Z,47.31
2023-09-04T23:04:55.318Z,47.39
2023-09-04T23:07:40.950Z,47.26
2023-09-04T23:10:27.148Z,47.41
2023-09-04T23:13:12.670Z,47.24
2023-09-04T23:15:58.513Z,47.23
2023-09-04T23:18:43.703Z,47.18
2023-09-04T23:21:10.573Z,47.45
2023-09-04T23:23:46.729Z,47.18
2023-09-04T23:26:16.801Z,47.18
2023-09-04T23:28:50.338Z,47.08
2023-09-04T23:31:20.439Z,47.31
2023-09-04T23:33:48.523Z,47.31
2023-09-04T23:36:18.281Z,47.29
2023-09-04T23:39:03.784Z,47.37
2023-09-04T23:41:49.718Z,47.18
2023-09-04T23:44:35.378Z,47.25
2023-09-04T23:47:03.887Z,47.54
2023-09-04T23:49:33.060Z,47.52
2023-09-04T23:52:00.395Z,47.42
2023-09-04T23:54:29.479Z,47.45
2023-09-04T23:56:59.456Z,47.60
2023-09-04T23:59:27.426Z,47.50
